createdAt,value
2024-05-09T00:00:22.266Z,29.531000
2024-05-09T00:05:16.152Z,29.527000
2024-05-09T00:10:25.112Z,29.523000
2024-05-09T00:15:16.035Z,29.517000
2024-05-09T00:20:20.647Z,29.518000
2024-05-09T00:25:16.223Z,29.510000
2024-05-09T00:30:24.234Z,29.508000
2024-05-09T00:35:16.166Z,29.522000
2024-05-09T00:40:26.431Z,29.535000
2024-05-09T00:45:16.061Z,29.539000
2024-05-09T00:50:22.710Z,29.541000
2024-05-09T00:55:16.243Z,29.546000
2024-05-09T01:00:26.106Z,29.544000
2024-05-09T01:05:16.490Z,29.563000
2024-05-09T01:10:21.233Z,29.573000
2024-05-09T01:15:16.194Z,29.591000
2024-05-09T01:20:20.322Z,29.588000
2024-05-09T01:25:16.256Z,29.591000
2024-05-09T01:30:21.012Z,29.583000
2024-05-09T01:35:16.296Z,29.586000
2024-05-09T01:40:21.989Z,29.590000
2024-05-09T01:45:16.394Z,29.579000
2024-05-09T01:50:16.699Z,29.567000
2024-05-09T01:55:16.275Z,29.568000
2024-05-09T02:00:22.258Z,29.565000
2024-05-09T02:05:16.568Z,29.561000
2024-05-09T02:10:23.256Z,29.562000
2024-05-09T02:15:16.326Z,29.561000
2024-05-09T02:20:22.737Z,29.566000
2024-05-09T02:25:16.267Z,29.569000
2024-05-09T02:30:22.904Z,29.562000
2024-05-09T02:35:16.629Z,29.563000
2024-05-09T02:40:21.839Z,29.567000
2024-05-09T02:45:16.288Z,29.569000
2024-05-09T02:50:23.107Z,29.561000
2024-05-09T02:55:16.296Z,29.557000
2024-05-09T03:00:22.760Z,29.555000
2024-05-09T03:05:16.592Z,29.550000
2024-05-09T03:10:22.344Z,29.541000
2024-05-09T03:15:16.323Z,29.540000
2024-05-09T03:20:23.362Z,29.545000
2024-05-09T03:25:16.336Z,29.552000
2024-05-09T03:30:28.870Z,29.551000
2024-05-09T03:35:16.532Z,29.547000
2024-05-09T03:40:23.347Z,29.544000
2024-05-09T03:45:16.386Z,29.544000
2024-05-09T03:50:22.762Z,29.541000
2024-05-09T03:55:16.590Z,29.542000
2024-05-09T04:00:22.132Z,29.543000
2024-05-09T04:05:16.054Z,29.542000
2024-05-09T04:10:24.037Z,29.541000
2024-05-09T04:15:15.992Z,29.546000
2024-05-09T04:20:28.570Z,29.549000
2024-05-09T04:25:16.012Z,29.543000
2024-05-09T04:30:25.416Z,29.545000
2024-05-09T04:35:16.246Z,29.547000
2024-05-09T04:40:24.276Z,29.547000
2024-05-09T04:45:16.013Z,29.550000
2024-05-09T04:50:24.660Z,29.552000
2024-05-09T04:55:16.101Z,29.554000
2024-05-09T05:00:21.858Z,29.556000
2024-05-09T05:05:16.081Z,29.556000
2024-05-09T05:10:21.606Z,29.554000
2024-05-09T05:15:16.127Z,29.553000
2024-05-09T05:20:24.389Z,29.557000
2024-05-09T05:25:16.085Z,29.557000
2024-05-09T05:30:21.285Z,29.560000
2024-05-09T05:35:16.125Z,29.562000
2024-05-09T05:40:25.320Z,29.570000
2024-05-09T05:45:16.255Z,29.567000
2024-05-09T05:50:27.242Z,29.565000
2024-05-09T05:55:16.306Z,29.562000
2024-05-09T06:00:25.965Z,29.564000
2024-05-09T06:05:16.152Z,29.568000
2024-05-09T06:10:21.483Z,29.571000
2024-05-09T06:15:16.154Z,29.574000
2024-05-09T06:20:23.434Z,29.574000
2024-05-09T06:25:16.180Z,29.573000
2024-05-09T06:30:25.703Z,29.574000
2024-05-09T06:35:16.173Z,29.576000
2024-05-09T06:40:21.400Z,29.574000
2024-05-09T06:45:16.256Z,29.572000
2024-05-09T06:50:23.425Z,29.571000
2024-05-09T06:55:16.357Z,29.574000
2024-05-09T07:00:23.055Z,29.571000
2024-05-09T07:05:16.307Z,29.570000
2024-05-09T07:10:22.110Z,29.570000
2024-05-09T07:15:16.221Z,29.572000
2024-05-09T07:20:23.550Z,29.572000
2024-05-09T07:25:16.256Z,29.575000
2024-05-09T07:30:23.009Z,29.575000
2024-05-09T07:35:16.607Z,29.576000
2024-05-09T07:40:24.955Z,29.574000
2024-05-09T07:45:39.013Z,29.573000
2024-05-09T07:52:23.595Z,29.572000
2024-05-09T07:55:16.463Z,29.573000
2024-05-09T08:00:20.464Z,29.568000
2024-05-09T08:05:16.468Z,29.569000
2024-05-09T08:10:28.566Z,29.566000
2024-05-09T08:15:16.584Z,29.563000
2024-05-09T08:20:26.505Z,29.565000
2024-05-09T08:25:16.622Z,29.567000
2024-05-09T08:30:24.599Z,29.566000
2024-05-09T08:35:16.356Z,29.570000
2024-05-09T08:40:23.930Z,29.570000
2024-05-09T08:45:16.398Z,29.570000
2024-05-09T08:50:28.666Z,29.571000
2024-05-09T08:55:16.471Z,29.573000
2024-05-09T09:00:33.472Z,29.575000
2024-05-09T09:05:16.632Z,29.577000
2024-05-09T09:10:24.941Z,29.581000
2024-05-09T09:15:16.432Z,29.582000
2024-05-09T09:20:23.182Z,29.583000
2024-05-09T09:25:16.513Z,29.585000
2024-05-09T09:30:30.790Z,29.587000
2024-05-09T09:35:16.467Z,29.589000
2024-05-09T09:40:18.370Z,29.590000
2024-05-09T09:45:16.612Z,29.592000
2024-05-09T09:50:20.665Z,29.594000
2024-05-09T09:55:16.667Z,29.595000
2024-05-09T10:00:24.008Z,29.597000
2024-05-09T10:05:16.705Z,29.604000
2024-05-09T10:10:22.937Z,29.611000
2024-05-09T10:15:16.533Z,29.614000
2024-05-09T10:20:21.912Z,29.614000
2024-05-09T10:25:16.705Z,29.610000
2024-05-09T10:30:25.423Z,29.615000
2024-05-09T10:35:16.636Z,29.616000
2024-05-09T10:40:23.434Z,29.620000
2024-05-09T10:45:16.852Z,29.625000
2024-05-09T10:50:22.628Z,29.627000
2024-05-09T10:55:16.892Z,29.627000
2024-05-09T11:00:27.027Z,29.624000
2024-05-09T11:05:16.960Z,29.626000
2024-05-09T11:10:24.396Z,29.630000
2024-05-09T11:15:16.689Z,29.630000
2024-05-09T11:20:22.993Z,29.631000
2024-05-09T11:25:16.859Z,29.632000
2024-05-09T11:30:24.180Z,29.635000
2024-05-09T11:35:16.819Z,29.632000
2024-05-09T11:40:24.718Z,29.632000
2024-05-09T11:45:16.921Z,29.640000
2024-05-09T11:50:26.716Z,29.643000
2024-05-09T11:55:16.983Z,29.641000
2024-05-09T12:00:24.614Z,29.641000
2024-05-09T12:05:19.142Z,29.644000
2024-05-09T12:10:22.142Z,29.645000
2024-05-09T12:15:17.016Z,29.648000
2024-05-09T12:20:25.036Z,29.646000
2024-05-09T12:25:17.117Z,29.645000
2024-05-09T12:30:24.702Z,29.643000
2024-05-09T12:35:16.952Z,29.645000
2024-05-09T12:40:23.206Z,29.647000
2024-05-09T12:45:17.003Z,29.650000
2024-05-09T12:50:25.077Z,29.652000
2024-05-09T12:55:17.014Z,29.650000
2024-05-09T13:00:23.909Z,29.653000
2024-05-09T13:05:17.242Z,29.656000
2024-05-09T13:10:25.520Z,29.657000
2024-05-09T13:15:16.909Z,29.662000
2024-05-09T13:20:25.739Z,29.663000
2024-05-09T13:25:16.965Z,29.663000
2024-05-09T13:30:28.664Z,29.668000
2024-05-09T13:35:17.144Z,29.667000
2024-05-09T13:40:26.703Z,29.671000
2024-05-09T13:45:16.912Z,29.672000
2024-05-09T13:50:27.772Z,29.672000
2024-05-09T13:55:16.975Z,29.670000
2024-05-09T14:00:27.431Z,29.676000
2024-05-09T14:05:17.423Z,29.678000
2024-05-09T14:10:23.285Z,29.674000
2024-05-09T14:15:17.200Z,29.677000
2024-05-09T14:20:27.965Z,29.671000
2024-05-09T14:25:17.318Z,29.675000
2024-05-09T14:30:22.973Z,29.680000
2024-05-09T14:35:17.259Z,29.674000
2024-05-09T14:40:30.665Z,29.678000
2024-05-09T14:45:17.075Z,29.678000
2024-05-09T14:50:24.013Z,29.678000
2024-05-09T14:55:17.147Z,29.685000
2024-05-09T15:00:25.458Z,29.685000
2024-05-09T15:05:17.178Z,29.682000
2024-05-09T15:10:26.255Z,29.684000
2024-05-09T15:15:17.215Z,29.683000
2024-05-09T15:20:20.712Z,29.682000
2024-05-09T15:25:17.212Z,29.689000
2024-05-09T15:30:20.846Z,29.684000
2024-05-09T15:35:17.273Z,29.686000
2024-05-09T15:40:26.242Z,29.688000
2024-05-09T15:45:17.144Z,29.690000
2024-05-09T15:50:23.453Z,29.688000
2024-05-09T15:55:17.353Z,29.688000
2024-05-09T16:00:24.985Z,29.689000
2024-05-09T16:05:17.292Z,29.689000
2024-05-09T16:10:22.999Z,29.689000
2024-05-09T16:15:17.184Z,29.690000
2024-05-09T16:20:28.999Z,29.689000
2024-05-09T16:25:17.420Z,29.688000
2024-05-09T16:30:24.771Z,29.687000
2024-05-09T16:35:17.177Z,29.685000
2024-05-09T16:40:25.502Z,29.689000
2024-05-09T16:45:15.244Z,29.685000
2024-05-09T16:50:19.255Z,29.687000
2024-05-09T16:55:15.422Z,29.687000
2024-05-09T17:00:22.680Z,29.684000
2024-05-09T17:05:15.463Z,29.684000
2024-05-09T17:10:22.114Z,29.685000
2024-05-09T17:15:15.290Z,29.680000
2024-05-09T17:20:25.625Z,29.683000
2024-05-09T17:25:15.444Z,29.689000
2024-05-09T17:30:24.048Z,29.690000
2024-05-09T17:35:15.577Z,29.692000
2024-05-09T17:40:17.337Z,29.692000
2024-05-09T17:45:15.509Z,29.693000
2024-05-09T17:50:23.740Z,29.691000
2024-05-09T17:55:15.539Z,29.690000
2024-05-09T18:00:24.611Z,29.686000
2024-05-09T18:05:15.733Z,29.687000
2024-05-09T18:10:21.980Z,29.686000
2024-05-09T18:15:15.631Z,29.684000
2024-05-09T18:20:23.566Z,29.689000
2024-05-09T18:25:15.572Z,29.690000
2024-05-09T18:30:23.847Z,29.696000
2024-05-09T18:35:15.562Z,29.695000
2024-05-09T18:40:21.163Z,29.694000
2024-05-09T18:45:15.648Z,29.693000
2024-05-09T18:50:24.594Z,29.696000
2024-05-09T18:55:15.543Z,29.695000
2024-05-09T19:00:26.789Z,29.694000
2024-05-09T19:05:15.757Z,29.694000
2024-05-09T19:10:22.494Z,29.699000
2024-05-09T19:15:15.527Z,29.698000
2024-05-09T19:20:24.908Z,29.698000
2024-05-09T19:25:15.557Z,29.697000
2024-05-09T19:30:25.067Z,29.696000
2024-05-09T19:35:15.753Z,29.694000
2024-05-09T19:40:24.530Z,29.695000
2024-05-09T19:45:15.667Z,29.699000
2024-05-09T19:50:22.475Z,29.698000
2024-05-09T19:55:15.861Z,29.697000
2024-05-09T20:00:21.960Z,29.698000
2024-05-09T20:05:15.804Z,29.699000
2024-05-09T20:10:23.318Z,29.700000
2024-05-09T20:15:15.700Z,29.702000
2024-05-09T20:20:27.301Z,29.699000
2024-05-09T20:25:16.024Z,29.700000
2024-05-09T20:30:24.730Z,29.698000
2024-05-09T20:35:15.702Z,29.702000
2024-05-09T20:40:25.258Z,29.704000
2024-05-09T20:45:15.710Z,29.703000
2024-05-09T20:50:23.843Z,29.704000
2024-05-09T20:55:15.889Z,29.708000
2024-05-09T21:00:19.166Z,29.703000
2024-05-09T21:05:15.824Z,29.709000
2024-05-09T21:10:22.279Z,29.713000
2024-05-09T21:15:15.951Z,29.717000
2024-05-09T21:20:20.305Z,29.723000
2024-05-09T21:25:15.734Z,29.726000
2024-05-09T21:30:22.699Z,29.728000
2024-05-09T21:35:15.789Z,29.728000
2024-05-09T21:40:26.619Z,29.730000
2024-05-09T21:45:15.724Z,29.730000
2024-05-09T21:50:22.718Z,29.733000
2024-05-09T21:55:15.990Z,29.735000
2024-05-09T22:00:28.211Z,29.734000
2024-05-09T22:05:16.006Z,29.735000
2024-05-09T22:10:22.638Z,29.740000
2024-05-09T22:15:15.787Z,29.746000
2024-05-09T22:20:22.266Z,29.750000
2024-05-09T22:25:16.044Z,29.753000
2024-05-09T22:30:23.759Z,29.756000
2024-05-09T22:35:15.817Z,29.752000
2024-05-09T22:40:24.232Z,29.756000
2024-05-09T22:45:15.873Z,29.761000
2024-05-09T22:50:22.750Z,29.760000
2024-05-09T22:55:15.910Z,29.760000
2024-05-09T23:00:18.740Z,29.758000
2024-05-09T23:05:16.159Z,29.762000
2024-05-09T23:10:21.457Z,29.761000
2024-05-09T23:15:15.893Z,29.760000
2024-05-09T23:20:22.077Z,29.768000
2024-05-09T23:25:18.218Z,29.770000
2024-05-09T23:30:28.254Z,29.769000
2024-05-09T23:35:16.100Z,29.773000
2024-05-09T23:40:19.004Z,29.773000
2024-05-09T23:45:15.951Z,29.772000
2024-05-09T23:50:20.683Z,29.774000
2024-05-09T23:55:16.458Z,29.772000
